Time;durP1;ratioP1;P1;durP2;ratioP2;P2;SDS_P1;SDS_P2;PMS_P1;PMS_P2;Temp;Humidity;BMP_temperature;BMP_pressure;BME280_temperature;BME280_humidity;BME280_pressure;Samples;Min_cycle;Max_cycle;Signal;HPM_P1;HPM_P2
2022/01/25 10:12:29;;;;;;;31.90;28.83;;;7.80;99.90;;;;;;5086629;27;20532;-74
2022/01/25 10:15:09;;;;;;;32.37;29.37;;;8.90;99.90;;;;;;5086921;28;20450;-75
2022/01/25 10:17:37;;;;;;;31.73;28.63;;;9.60;99.90;;;;;;5086867;28;20442;-74
2022/01/25 10:20:04;;;;;;;32.53;28.00;;;10.40;97.20;;;;;;5086580;28;20525;-75
2022/01/25 10:22:42;;;;;;;30.67;27.83;;;10.50;96.40;;;;;;5086644;28;20941;-74
2022/01/25 10:25:09;;;;;;;28.60;25.97;;;10.50;97.10;;;;;;5086876;28;20869;-75
2022/01/25 10:28:02;;;;;;;32.33;29.20;;;11.30;95.50;;;;;;5086767;28;20450;-74
2022/01/25 10:30:32;;;;;;;31.43;28.50;;;12.20;93.10;;;;;;5086578;28;20561;-75
2022/01/25 10:33:03;;;;;;;29.53;26.83;;;12.20;92.50;;;;;;5086627;28;20932;-75
2022/01/25 10:35:31;;;;;;;31.07;28.07;;;13.10;91.40;;;;;;5086534;28;20454;-74
2022/01/25 10:37:58;;;;;;;30.80;28.07;;;13.70;90.10;;;;;;5086738;28;20450;-75
2022/01/25 10:40:38;;;;;;;32.20;29.13;;;14.60;86.70;;;;;;5086841;28;20461;-74
2022/01/25 10:43:07;;;;;;;31.33;28.47;;;14.10;84.60;;;;;;5086529;28;20832;-74
2022/01/25 10:45:34;;;;;;;29.70;27.40;;;13.90;85.90;;;;;;5086363;28;20589;-75
2022/01/25 10:48:01;;;;;;;30.47;27.83;;;14.20;85.40;;;;;;5086342;28;20951;-75
2022/01/25 10:50:34;;;;;;;28.57;26.23;;;14.70;84.90;;;;;;5086579;28;20887;-75
2022/01/25 10:53:07;;;;;;;31.63;28.83;;;14.60;82.30;;;;;;5086371;28;20549;-75
2022/01/25 10:55:39;;;;;;;31.87;29.17;;;15.20;80.40;;;;;;5086184;28;20545;-75
2022/01/25 10:58:07;;;;;;;30.30;27.83;;;15.90;78.70;;;;;;5086085;28;20443;-74
2022/01/25 11:00:37;;;;;;;29.73;27.20;;;16.20;77.40;;;;;;5086204;28;20453;-75
2022/01/25 11:03:05;;;;;;;28.40;26.10;;;16.50;74.90;;;;;;5085807;28;21021;-75
2022/01/25 11:05:33;;;;;;;31.77;29.17;;;16.30;74.60;;;;;;5085796;28;20549;-75
2022/01/25 11:08:10;;;;;;;29.80;27.50;;;17.00;73.00;;;;;;5085856;28;20446;-75
2022/01/25 11:10:38;;;;;;;30.77;28.17;;;17.10;72.90;;;;;;5085527;28;20493;-75
2022/01/25 11:13:21;;;;;;;31.33;28.73;;;17.10;70.60;;;;;;5074349;28;20671;-75
2022/01/25 11:15:49;;;;;;;33.37;30.80;;;15.90;71.70;;;;;;5072226;28;20504;-75
2022/01/25 11:18:15;;;;;;;31.33;28.50;;;16.00;73.10;;;;;;5071944;28;20542;-75
2022/01/25 11:20:43;;;;;;;30.43;27.83;;;16.00;73.90;;;;;;5072263;28;20447;-75
2022/01/25 11:23:10;;;;;;;31.80;29.13;;;16.40;73.00;;;;;;5072433;28;20454;-75
2022/01/25 11:25:38;;;;;;;31.10;28.60;;;16.70;71.70;;;;;;5071756;28;20443;-75
2022/01/25 11:28:07;;;;;;;30.90;28.47;;;17.00;70.30;;;;;;5072041;28;20481;-74
2022/01/25 11:30:35;;;;;;;31.50;28.90;;;16.30;71.40;;;;;;5071955;28;20516;-75
2022/01/25 11:33:04;;;;;;;30.73;28.37;;;16.10;71.60;;;;;;5071880;28;20954;-76
2022/01/25 11:35:32;;;;;;;31.70;28.67;;;16.00;72.60;;;;;;5071998;28;20462;-76
2022/01/25 11:37:58;;;;;;;32.83;30.07;;;15.80;72.30;;;;;;5072790;28;20794;-76
2022/01/25 11:40:28;;;;;;;31.87;29.37;;;16.20;73.60;;;;;;5072288;28;20949;-75
2022/01/25 11:42:57;;;;;;;33.67;30.70;;;16.40;70.50;;;;;;5072211;28;20470;-75
2022/01/25 11:45:28;;;;;;;31.20;28.60;;;15.60;73.20;;;;;;5071885;28;20448;-75
2022/01/25 11:47:56;;;;;;;32.60;30.00;;;15.50;73.00;;;;;;5072054;28;20443;-74
2022/01/25 11:50:27;;;;;;;31.10;28.50;;;15.80;73.90;;;;;;5071643;28;20447;-74
2022/01/25 11:52:56;;;;;;;31.17;28.77;;;16.30;73.50;;;;;;5071847;28;20451;-75
2022/01/25 11:55:26;;;;;;;32.23;29.43;;;17.00;71.90;;;;;;5071632;28;20451;-74
2022/01/25 11:57:56;;;;;;;33.47;30.77;;;17.40;70.40;;;;;;5071775;28;20516;-74
2022/01/25 12:00:36;;;;;;;31.40;28.73;;;17.80;69.00;;;;;;5071567;28;20500;-76
2022/01/25 12:03:18;;;;;;;32.50;29.80;;;18.10;68.20;;;;;;5071509;28;20524;-76
2022/01/25 12:06:00;;;;;;;32.50;29.80;;;18.30;67.50;;;;;;5071606;28;20451;-76
2022/01/25 12:08:40;;;;;;;34.20;31.47;;;18.10;66.40;;;;;;5072058;28;20555;-76
2022/01/25 12:11:29;;;;;;;33.93;30.70;;;17.60;67.60;;;;;;5071259;28;21007;-77
2022/01/25 12:14:12;;;;;;;33.73;30.83;;;15.90;69.70;;;;;;5071970;28;20477;-76
2022/01/25 12:16:43;;;;;;;33.20;30.23;;;14.70;74.00;;;;;;5071573;28;20869;-76
2022/01/25 12:19:11;;;;;;;33.73;31.03;;;14.20;76.50;;;;;;5071453;28;20451;-75
2022/01/25 12:22:01;;;;;;;33.53;30.80;;;14.50;76.80;;;;;;5071448;28;20475;-76
2022/01/25 12:24:33;;;;;;;32.87;29.87;;;14.50;76.90;;;;;;5070207;28;20451;-76
2022/01/25 12:27:06;;;;;;;34.93;31.73;;;13.90;77.40;;;;;;5071093;28;20451;-76
2022/01/25 12:29:36;;;;;;;33.00;29.87;;;13.70;78.30;;;;;;5071312;28;20449;-75
2022/01/25 12:32:28;;;;;;;35.57;32.23;;;12.90;81.00;;;;;;5070768;28;20487;-75
2022/01/25 12:35:20;;;;;;;33.97;30.93;;;12.70;83.30;;;;;;5071155;28;20550;-75
2022/01/25 12:38:12;;;;;;;35.77;32.37;;;12.40;84.90;;;;;;5070738;28;20477;-75
2022/01/25 12:40:49;;;;;;;34.40;31.00;;;11.80;86.80;;;;;;5070873;28;20439;-74
2022/01/25 12:43:18;;;;;;;35.63;32.17;;;11.80;89.40;;;;;;5070743;28;20454;-75
2022/01/25 12:45:48;;;;;;;34.37;31.07;;;11.70;89.40;;;;;;5070608;28;20455;-74
2022/01/25 12:48:20;;;;;;;34.50;31.67;;;11.50;90.40;;;;;;5070403;28;20450;-74
2022/01/25 12:50:48;;;;;;;35.27;32.00;;;11.10;91.10;;;;;;5070155;28;20762;-75
2022/01/25 12:53:18;;;;;;;35.97;32.57;;;10.80;92.20;;;;;;5070141;28;20451;-75
2022/01/25 12:55:48;;;;;;;34.43;31.43;;;11.40;92.30;;;;;;5070328;28;20459;-75
2022/01/25 12:58:15;;;;;;;34.67;31.43;;;11.00;92.10;;;;;;5070429;28;20458;-75
2022/01/25 13:00:45;;;;;;;31.60;28.87;;;10.50;93.30;;;;;;5070536;28;20450;-74
2022/01/25 13:03:23;;;;;;;34.83;31.40;;;10.70;93.50;;;;;;5070324;28;20521;-75
2022/01/25 13:05:52;;;;;;;35.33;31.97;;;11.20;93.00;;;;;;5070187;28;20450;-75
2022/01/25 13:08:26;;;;;;;32.63;29.73;;;10.70;93.40;;;;;;5069960;28;20614;-74
2022/01/25 13:10:57;;;;;;;32.77;29.43;;;9.90;94.50;;;;;;5069944;28;20499;-76
2022/01/25 13:13:29;;;;;;;35.60;32.23;;;9.40;96.60;;;;;;5070366;28;20802;-75
2022/01/25 13:15:58;;;;;;;32.80;29.50;;;8.70;98.80;;;;;;5070177;28;20456;-75
2022/01/25 13:18:31;;;;;;;32.33;29.53;;;7.90;99.90;;;;;;5069913;28;20447;-75
2022/01/25 13:21:04;;;;;;;32.73;29.50;;;7.70;99.90;;;;;;5071186;28;20457;-75
2022/01/25 13:23:32;;;;;;;32.37;29.13;;;7.50;99.90;;;;;;5076861;28;20465;-76
2022/01/25 13:26:09;;;;;;;36.37;32.47;;;7.10;99.90;;;;;;5072469;28;20469;-75
2022/01/25 13:28:50;;;;;;;33.97;30.70;;;6.90;99.90;;;;;;5069883;28;20452;-74
2022/01/25 13:31:18;;;;;;;33.13;29.93;;;6.70;99.90;;;;;;5069755;28;20483;-75
2022/01/25 13:33:46;;;;;;;32.17;28.87;;;6.60;99.90;;;;;;5069574;28;20455;-74
2022/01/25 13:36:15;;;;;;;34.77;31.10;;;6.40;99.90;;;;;;5069456;28;20807;-75
2022/01/25 13:38:42;;;;;;;31.50;28.40;;;6.30;99.90;;;;;;5069923;28;20464;-74
2022/01/25 13:41:20;;;;;;;33.13;29.27;;;6.20;99.90;;;;;;5069858;28;20447;-75
2022/01/25 13:46:35;;;;;;;32.67;29.47;;;6.20;99.90;;;;;;5069767;28;20539;-74
2022/01/25 13:49:06;;;;;;;34.87;29.97;;;6.20;99.90;;;;;;5069652;28;20780;-75
2022/01/25 13:51:40;;;;;;;36.33;30.70;;;6.00;99.90;;;;;;5069572;28;20485;-75
2022/01/25 13:54:07;;;;;;;33.27;29.77;;;6.00;99.90;;;;;;5069571;28;20809;-75
2022/01/25 13:56:36;;;;;;;35.93;31.80;;;6.10;99.90;;;;;;5069518;28;20447;-75
2022/01/25 13:59:04;;;;;;;34.40;30.37;;;6.00;99.90;;;;;;5069346;28;20481;-74
2022/01/25 14:01:32;;;;;;;34.10;29.87;;;6.00;99.90;;;;;;5069161;28;20477;-74
2022/01/25 14:04:01;;;;;;;34.80;31.30;;;6.00;99.90;;;;;;5069377;28;20477;-75
2022/01/25 14:06:30;;;;;;;35.30;31.00;;;5.90;99.90;;;;;;5070032;28;20504;-74
2022/01/25 14:09:03;;;;;;;37.37;33.50;;;5.90;99.90;;;;;;5069591;28;20459;-75
2022/01/25 14:11:37;;;;;;;41.27;34.43;;;5.90;99.90;;;;;;5069243;28;20513;-75
2022/01/25 14:25:07;;;;;;;47.87;39.50;;;5.70;99.90;;;;;;5068862;28;20446;-75
2022/01/25 14:27:44;;;;;;;48.43;38.87;;;5.50;99.90;;;;;;5069236;28;20443;-75
2022/01/25 14:30:12;;;;;;;52.17;41.73;;;5.40;99.90;;;;;;5069530;28;21079;-75
2022/01/25 14:32:38;;;;;;;44.53;37.07;;;5.20;99.90;;;;;;5069261;28;20486;-76
2022/01/25 14:35:07;;;;;;;51.53;41.63;;;5.20;99.90;;;;;;5069143;28;20458;-76
2022/01/25 14:37:41;;;;;;;48.47;38.60;;;5.10;99.90;;;;;;5069010;28;20685;-76
2022/01/25 14:40:10;;;;;;;52.63;40.70;;;4.90;99.90;;;;;;5069201;28;20439;-76
2022/01/25 14:42:41;;;;;;;46.30;38.20;;;4.90;99.90;;;;;;5069322;28;20450;-76
2022/01/25 14:45:13;;;;;;;53.23;41.70;;;4.90;99.90;;;;;;5068947;28;20966;-76
2022/01/25 14:47:43;;;;;;;55.87;43.20;;;4.90;99.90;;;;;;5071191;28;20442;-76
2022/01/25 14:50:17;;;;;;;48.03;38.93;;;4.80;99.90;;;;;;5073327;28;20585;-75
2022/01/25 14:53:02;;;;;;;49.07;41.10;;;4.70;99.90;;;;;;5072561;28;21100;-75
2022/01/25 14:55:30;;;;;;;52.70;40.70;;;4.70;99.90;;;;;;5073175;28;20881;-76
2022/01/25 14:58:10;;;;;;;51.43;42.57;;;4.60;99.90;;;;;;5073059;28;20451;-76
2022/01/25 15:00:42;;;;;;;57.73;41.53;;;4.60;99.90;;;;;;5072720;28;20458;-75
2022/01/25 15:03:08;;;;;;;52.80;42.23;;;4.60;99.90;;;;;;5072569;28;20824;-76
2022/01/25 15:05:35;;;;;;;52.23;41.23;;;4.60;99.90;;;;;;5072655;28;20817;-76
2022/01/25 15:08:04;;;;;;;56.17;40.97;;;4.50;99.90;;;;;;5072423;28;20939;-76
2022/01/25 15:10:33;;;;;;;61.93;45.93;;;4.50;99.90;;;;;;5072367;28;20483;-75
2022/01/25 15:13:00;;;;;;;55.47;42.63;;;4.30;99.90;;;;;;5072514;28;20483;-74
2022/01/25 15:15:30;;;;;;;50.97;41.20;;;4.10;99.90;;;;;;5072548;28;20455;-75
2022/01/25 15:17:56;;;;;;;60.33;44.00;;;4.00;99.90;;;;;;5072589;28;20549;-75
2022/01/25 15:20:23;;;;;;;52.67;42.87;;;3.80;99.90;;;;;;5072354;28;20931;-75
2022/01/25 15:22:50;;;;;;;61.27;44.30;;;3.60;99.90;;;;;;5072284;28;20454;-75
2022/01/25 15:25:22;;;;;;;67.13;47.00;;;3.50;99.90;;;;;;5072225;28;20454;-75
2022/01/25 15:27:50;;;;;;;60.77;44.70;;;3.30;99.90;;;;;;5072132;28;20508;-74
2022/01/25 15:30:17;;;;;;;67.97;46.03;;;3.10;99.90;;;;;;5072197;28;20498;-74
2022/01/25 15:32:44;;;;;;;73.43;49.07;;;3.00;99.90;;;;;;5072212;28;20488;-75
2022/01/25 15:35:10;;;;;;;61.30;45.60;;;2.80;99.90;;;;;;5072246;28;20467;-74
2022/01/25 15:37:37;;;;;;;68.03;44.87;;;2.80;99.90;;;;;;5072040;28;20455;-74
2022/01/25 15:40:05;;;;;;;61.33;44.23;;;2.70;99.90;;;;;;5076203;28;20448;-74
2022/01/25 15:42:35;;;;;;;72.37;49.73;;;2.80;99.90;;;;;;5075236;28;20447;-74
2022/01/25 15:45:10;;;;;;;68.00;46.57;;;2.80;99.90;;;;;;5075485;28;20453;-75
2022/01/25 15:47:37;;;;;;;63.60;46.10;;;2.70;99.90;;;;;;5073594;28;20476;-74
2022/01/25 15:50:05;;;;;;;72.87;47.03;;;2.80;99.90;;;;;;5071705;28;20871;-74
2022/01/25 15:52:31;;;;;;;68.33;39.87;;;2.80;99.90;;;;;;5071526;28;21042;-74
2022/01/25 15:54:58;;;;;;;74.93;47.60;;;2.70;99.90;;;;;;5071715;28;20572;-74
2022/01/25 15:57:25;;;;;;;120.57;55.87;;;2.70;99.90;;;;;;5071780;28;20451;-74
2022/01/25 15:59:53;;;;;;;74.43;43.70;;;2.60;99.90;;;;;;5071654;28;20483;-76
2022/01/25 16:02:20;;;;;;;70.37;46.47;;;2.60;99.90;;;;;;5071337;28;20470;-74
2022/01/25 16:04:48;;;;;;;74.77;51.60;;;2.60;99.90;;;;;;5071542;28;20458;-76
2022/01/25 16:07:15;;;;;;;79.73;46.83;;;2.60;99.90;;;;;;5071542;28;20488;-76
2022/01/25 16:09:43;;;;;;;68.23;47.07;;;2.60;99.90;;;;;;5071793;28;20501;-75
2022/01/25 16:12:12;;;;;;;75.00;48.17;;;2.60;99.90;;;;;;5071453;28;21179;-76
2022/01/25 16:14:40;;;;;;;75.17;48.03;;;2.70;99.90;;;;;;5071371;28;20811;-75
2022/01/25 16:17:08;;;;;;;72.67;45.90;;;2.60;99.90;;;;;;5070969;28;20502;-75
2022/01/25 16:19:35;;;;;;;76.90;47.80;;;2.60;99.90;;;;;;5071073;28;20712;-75
2022/01/25 16:22:03;;;;;;;76.83;47.70;;;2.60;99.90;;;;;;5070856;28;20709;-75
2022/01/25 16:24:30;;;;;;;82.97;48.10;;;2.60;99.90;;;;;;5071018;28;20452;-75
2022/01/25 16:26:57;;;;;;;77.03;47.97;;;2.70;99.90;;;;;;5071274;28;20510;-75
2022/01/25 16:29:23;;;;;;;73.07;45.73;;;2.60;99.90;;;;;;5082029;28;20443;-75
2022/01/25 16:31:50;;;;;;;69.77;46.07;;;2.60;99.90;;;;;;5074745;28;20859;-75
2022/01/25 16:34:18;;;;;;;74.87;47.53;;;2.60;99.90;;;;;;5070866;28;20825;-75
2022/01/25 16:36:46;;;;;;;72.67;45.67;;;2.60;99.90;;;;;;5070962;28;20497;-75
2022/01/25 16:39:14;;;;;;;77.57;47.20;;;2.60;99.90;;;;;;5071065;28;20485;-75
2022/01/25 16:41:42;;;;;;;64.97;41.37;;;2.50;99.90;;;;;;5070951;28;20479;-75
2022/01/25 16:44:09;;;;;;;73.20;45.10;;;2.50;99.90;;;;;;5070737;28;20446;-75
2022/01/25 16:46:37;;;;;;;74.73;43.90;;;2.50;99.90;;;;;;5070490;28;20459;-75
2022/01/25 16:49:04;;;;;;;84.70;51.20;;;2.40;99.90;;;;;;5070645;28;20476;-75
2022/01/25 16:51:32;;;;;;;75.53;49.57;;;2.40;99.90;;;;;;5070359;28;20447;-76
2022/01/25 16:53:59;;;;;;;78.40;49.17;;;2.40;99.90;;;;;;5070382;28;20482;-74
2022/01/25 16:56:27;;;;;;;79.07;46.00;;;2.40;99.90;;;;;;5070561;28;20443;-76
2022/01/25 16:58:59;;;;;;;82.70;47.50;;;2.40;99.90;;;;;;5070413;28;20943;-76
2022/01/25 17:01:26;;;;;;;89.40;49.80;;;2.40;99.90;;;;;;5070566;28;20460;-75
2022/01/25 17:03:54;;;;;;;80.63;47.13;;;2.50;99.90;;;;;;5070198;28;20473;-76
2022/01/25 17:06:21;;;;;;;77.83;46.83;;;2.60;99.90;;;;;;5070101;28;20456;-76
2022/01/25 17:08:49;;;;;;;78.80;46.50;;;2.60;99.90;;;;;;5070025;28;20596;-75
2022/01/25 17:11:17;;;;;;;80.00;43.93;;;2.60;99.90;;;;;;5069407;28;20487;-76
2022/01/25 17:13:44;;;;;;;71.07;47.00;;;2.70;99.90;;;;;;5070132;28;21026;-76
2022/01/25 17:16:12;;;;;;;78.17;44.70;;;2.70;99.90;;;;;;5070285;28;20816;-76
2022/01/25 17:18:39;;;;;;;74.73;47.20;;;2.70;99.90;;;;;;5069984;28;20455;-76
2022/01/25 17:21:07;;;;;;;76.30;46.43;;;2.80;99.90;;;;;;5069873;28;20943;-76
2022/01/25 17:23:34;;;;;;;72.30;44.57;;;2.80;99.90;;;;;;5069940;28;20449;-76
2022/01/25 17:26:02;;;;;;;73.73;50.03;;;2.80;99.90;;;;;;5069930;28;20867;-76
2022/01/25 17:28:28;;;;;;;71.17;44.43;;;2.80;99.90;;;;;;5069950;28;20525;-75
2022/01/25 17:30:57;;;;;;;62.83;44.30;;;2.80;99.90;;;;;;5069966;28;20451;-74
2022/01/25 17:33:24;;;;;;;75.93;46.80;;;2.80;99.90;;;;;;5070239;28;20581;-74
2022/01/25 17:35:51;;;;;;;67.93;44.30;;;2.80;99.90;;;;;;5069739;28;20943;-74
2022/01/25 17:38:18;;;;;;;74.00;45.23;;;2.90;99.90;;;;;;5069784;28;20562;-74
2022/01/25 17:40:45;;;;;;;77.03;47.80;;;2.90;99.90;;;;;;5069609;28;20503;-75
2022/01/25 17:43:13;;;;;;;74.47;48.00;;;2.90;99.90;;;;;;5070090;28;20450;-75
2022/01/25 17:45:47;;;;;;;74.97;45.03;;;2.90;99.90;;;;;;5070149;28;20450;-74
2022/01/25 17:48:14;;;;;;;81.20;49.43;;;2.80;99.90;;;;;;5070035;28;20482;-75
2022/01/25 17:50:41;;;;;;;72.43;46.87;;;2.80;99.90;;;;;;5069909;28;20454;-74
2022/01/25 17:53:08;;;;;;;78.63;47.10;;;2.80;99.90;;;;;;5069487;28;20490;-74
2022/01/25 17:55:35;;;;;;;70.97;44.87;;;2.80;99.90;;;;;;5069457;28;20452;-75
2022/01/25 17:58:01;;;;;;;75.80;43.47;;;2.70;99.90;;;;;;5069682;28;20981;-74
